Time;durP1;ratioP1;P1;durP2;ratioP2;P2;SDS_P1;SDS_P2;PMS_P1;PMS_P2;Temp;Humidity;BMP_temperature;BMP_pressure;BME280_temperature;BME280_humidity;BME280_pressure;Samples;Min_cycle;Max_cycle;Signal;HPM_P1;HPM_P2
2023/04/27 04:02:39;;;;;;;0.38;0.38;;;3.00;99.90;;;;;;4948096;29;20205;-73
2023/04/27 04:05:06;;;;;;;0.63;0.63;;;2.90;99.90;;;;;;4952056;28;20204;-73
2023/04/27 04:07:33;;;;;;;1.20;0.73;;;3.00;99.90;;;;;;4952241;28;20229;-72
2023/04/27 04:10:00;;;;;;;0.80;0.80;;;3.00;99.90;;;;;;4952262;28;20209;-73
2023/04/27 04:12:32;;;;;;;5.18;1.15;;;3.00;99.90;;;;;;4952287;28;20303;-72
2023/04/27 04:14:59;;;;;;;1.63;1.13;;;3.00;99.90;;;;;;4951986;28;20685;-70
2023/04/27 04:17:26;;;;;;;0.30;0.30;;;3.00;99.90;;;;;;4952325;28;20205;-69
2023/04/27 04:19:54;;;;;;;0.70;0.35;;;3.00;99.90;;;;;;4952190;28;20232;-70
2023/04/27 04:22:20;;;;;;;1.85;0.85;;;3.00;99.90;;;;;;4952126;28;20225;-69
2023/04/27 04:24:47;;;;;;;0.63;0.63;;;2.90;99.90;;;;;;4951659;28;20212;-70
2023/04/27 04:27:14;;;;;;;0.52;0.52;;;2.90;99.90;;;;;;4951853;28;20253;-70
2023/04/27 04:29:41;;;;;;;0.93;0.93;;;3.00;99.90;;;;;;4944215;28;20284;-72
2023/04/27 04:32:08;;;;;;;1.00;0.98;;;3.00;99.90;;;;;;4938507;28;20222;-72
2023/04/27 04:34:35;;;;;;;2.15;1.67;;;3.00;99.90;;;;;;4932917;29;20535;-73
2023/04/27 04:37:03;;;;;;;1.27;1.17;;;3.00;99.90;;;;;;4932997;29;20237;-73
2023/04/27 04:39:32;;;;;;;0.20;0.20;;;3.00;99.90;;;;;;4933505;29;20238;-73
2023/04/27 04:41:58;;;;;;;1.38;1.33;;;3.10;99.90;;;;;;4936934;29;20241;-73
2023/04/27 04:44:25;;;;;;;1.48;1.48;;;3.10;99.90;;;;;;4936051;29;20209;-73
2023/04/27 04:46:54;;;;;;;1.10;0.57;;;3.20;99.90;;;;;;4936912;29;20226;-74
2023/04/27 04:49:20;;;;;;;1.83;1.67;;;3.70;99.90;;;;;;4937171;29;20585;-74
2023/04/27 04:51:47;;;;;;;2.35;2.25;;;4.50;99.90;;;;;;4936839;29;20229;-71
2023/04/27 04:54:15;;;;;;;3.45;2.45;;;5.00;99.90;;;;;;4936684;29;20702;-71
2023/04/27 04:56:42;;;;;;;2.35;1.58;;;5.50;99.90;;;;;;4937496;29;20206;-72
2023/04/27 04:59:09;;;;;;;1.33;1.23;;;5.60;99.90;;;;;;4938135;29;20210;-72
2023/04/27 05:01:35;;;;;;;0.75;0.75;;;5.60;99.90;;;;;;4937918;29;20312;-72
2023/04/27 05:04:02;;;;;;;0.85;0.85;;;5.50;99.90;;;;;;4936717;29;20213;-72
2023/04/27 05:06:29;;;;;;;1.70;1.42;;;5.40;99.90;;;;;;4937225;29;20205;-73
2023/04/27 05:08:56;;;;;;;2.88;2.63;;;5.50;99.90;;;;;;4937346;29;20210;-73
2023/04/27 05:11:24;;;;;;;23.27;10.65;;;5.60;99.90;;;;;;4936469;29;20241;-73
2023/04/27 05:13:50;;;;;;;13.25;8.82;;;5.70;99.90;;;;;;4936682;29;20210;-75
2023/04/27 05:16:17;;;;;;;10.65;7.10;;;5.80;99.90;;;;;;4937938;29;20217;-73
2023/04/27 05:18:44;;;;;;;3.55;2.58;;;5.80;99.90;;;;;;4936932;29;20220;-73
2023/04/27 05:21:15;;;;;;;4.97;3.15;;;5.80;99.90;;;;;;4938190;29;20581;-73
2023/04/27 05:23:42;;;;;;;1.25;1.25;;;5.90;99.90;;;;;;4936210;29;20252;-73
2023/04/27 05:26:12;;;;;;;2.45;2.25;;;5.90;99.90;;;;;;4936314;29;20225;-73
2023/04/27 05:28:41;;;;;;;2.08;1.88;;;5.90;99.90;;;;;;4936741;29;20241;-73
2023/04/27 05:31:08;;;;;;;1.58;1.58;;;5.90;99.90;;;;;;4943797;29;20226;-72
2023/04/27 05:33:35;;;;;;;2.47;1.35;;;5.90;99.90;;;;;;4953583;29;20216;-73
2023/04/27 05:36:01;;;;;;;1.83;1.73;;;5.80;99.90;;;;;;4955944;28;20300;-73
2023/04/27 05:38:28;;;;;;;3.08;2.88;;;5.90;99.90;;;;;;4956605;28;20201;-72
2023/04/27 05:40:55;;;;;;;2.20;1.95;;;5.90;99.90;;;;;;4955804;28;20233;-72
2023/04/27 05:43:22;;;;;;;0.70;0.70;;;6.00;99.90;;;;;;4956395;28;20213;-73
2023/04/27 05:45:51;;;;;;;3.10;2.35;;;6.00;99.90;;;;;;4956757;28;20666;-72
2023/04/27 05:48:17;;;;;;;1.88;1.73;;;6.00;99.90;;;;;;4956050;28;20233;-72
2023/04/27 05:50:44;;;;;;;0.57;0.57;;;6.00;99.90;;;;;;4957034;28;20233;-74
2023/04/27 05:53:11;;;;;;;0.65;0.65;;;6.00;99.90;;;;;;4955716;28;20451;-73
2023/04/27 05:55:38;;;;;;;0.38;0.38;;;6.00;99.90;;;;;;4955166;28;20285;-73
2023/04/27 05:58:05;;;;;;;2.95;1.10;;;6.00;99.90;;;;;;4954096;28;20205;-73
2023/04/27 06:00:32;;;;;;;0.50;0.50;;;6.00;99.90;;;;;;4954612;28;20251;-73
2023/04/27 06:03:00;;;;;;;1.20;1.13;;;6.10;99.90;;;;;;4955281;28;20220;-72
2023/04/27 06:05:27;;;;;;;1.35;1.35;;;6.10;99.90;;;;;;4954716;28;20224;-71
2023/04/27 06:07:54;;;;;;;9.57;1.10;;;6.40;99.90;;;;;;4954823;28;20240;-72
2023/04/27 06:10:21;;;;;;;1.60;1.60;;;6.90;99.90;;;;;;4955004;28;20275;-72
2023/04/27 06:12:48;;;;;;;2.63;2.45;;;7.80;99.90;;;;;;4954537;28;20220;-72
2023/04/27 06:15:15;;;;;;;1.13;1.13;;;8.60;99.90;;;;;;4954102;28;20597;-68
2023/04/27 06:17:43;;;;;;;0.63;0.63;;;9.50;99.90;;;;;;4955439;28;20524;-73
2023/04/27 06:20:14;;;;;;;0.80;0.80;;;9.70;99.90;;;;;;4955183;28;20492;-71
2023/04/27 06:22:41;;;;;;;1.40;1.30;;;9.70;99.90;;;;;;4954861;28;20468;-73
2023/04/27 06:25:08;;;;;;;1.10;1.10;;;9.80;99.90;;;;;;4954950;28;20469;-72
2023/04/27 06:27:37;;;;;;;1.40;1.30;;;10.40;99.90;;;;;;4954120;28;20489;-73
2023/04/27 06:30:05;;;;;;;5.83;1.27;;;11.20;99.90;;;;;;4954943;28;20508;-73
2023/04/27 06:32:32;;;;;;;1.10;1.10;;;11.70;99.90;;;;;;4954834;28;20484;-73
2023/04/27 06:34:58;;;;;;;0.57;0.57;;;12.00;99.90;;;;;;4954560;28;20479;-74
2023/04/27 06:37:26;;;;;;;1.03;0.97;;;12.30;99.90;;;;;;4955277;28;20654;-73
2023/04/27 06:39:53;;;;;;;0.87;0.70;;;12.90;99.90;;;;;;4954855;28;20938;-73
2023/04/27 06:42:20;;;;;;;0.90;0.90;;;13.30;99.90;;;;;;4954862;28;20848;-73
2023/04/27 06:44:47;;;;;;;1.00;1.00;;;13.50;99.90;;;;;;4954550;28;20555;-73
2023/04/27 06:47:14;;;;;;;1.17;1.10;;;13.70;99.90;;;;;;4955365;28;20489;-73
2023/04/27 06:49:41;;;;;;;0.87;0.87;;;14.00;99.90;;;;;;4955425;28;20469;-72
2023/04/27 06:52:12;;;;;;;0.87;0.87;;;14.00;99.90;;;;;;4955041;28;20602;-73
2023/04/27 06:54:40;;;;;;;0.80;0.80;;;14.30;99.90;;;;;;4954246;28;20471;-72
2023/04/27 06:57:07;;;;;;;0.40;0.40;;;14.60;99.90;;;;;;4954697;28;20808;-72
2023/04/27 06:59:34;;;;;;;0.90;0.90;;;14.60;99.90;;;;;;4954135;28;20924;-73
2023/04/27 07:02:01;;;;;;;2.10;1.03;;;15.00;99.90;;;;;;4955469;28;21016;-73
2023/04/27 07:04:28;;;;;;;1.17;1.03;;;15.10;99.90;;;;;;4954054;28;20857;-72
2023/04/27 07:06:56;;;;;;;2.40;0.80;;;15.30;99.90;;;;;;4955260;28;20555;-73
2023/04/27 07:09:22;;;;;;;0.53;0.53;;;15.40;99.90;;;;;;4954367;28;20538;-72
2023/04/27 07:11:51;;;;;;;0.90;0.90;;;15.40;99.90;;;;;;4953891;28;20495;-73
2023/04/27 07:14:17;;;;;;;4.53;1.00;;;14.90;99.90;;;;;;4953367;28;20474;-71
2023/04/27 07:16:45;;;;;;;0.60;0.60;;;14.10;99.90;;;;;;4954069;28;20844;-72
2023/04/27 07:19:12;;;;;;;4.23;0.90;;;13.60;99.90;;;;;;4954032;28;20473;-71
2023/04/27 07:21:39;;;;;;;7.40;1.17;;;14.00;99.90;;;;;;4953696;28;20500;-71
2023/04/27 07:24:06;;;;;;;0.40;0.40;;;14.60;99.90;;;;;;4953336;28;20472;-72
2023/04/27 07:26:33;;;;;;;1.00;1.00;;;14.80;99.90;;;;;;4953301;28;20471;-71
2023/04/27 07:29:01;;;;;;;0.60;0.60;;;14.60;99.90;;;;;;4947411;28;21064;-71
2023/04/27 07:31:28;;;;;;;1.10;1.10;;;13.90;99.90;;;;;;4950837;29;20503;-71
2023/04/27 07:33:55;;;;;;;1.13;1.00;;;13.40;99.90;;;;;;4952677;28;20465;-71
2023/04/27 07:36:21;;;;;;;0.93;0.80;;;13.20;99.90;;;;;;4953093;28;20986;-72
2023/04/27 07:38:48;;;;;;;0.83;0.80;;;12.80;99.90;;;;;;4953417;28;20465;-71
2023/04/27 07:41:16;;;;;;;0.93;0.93;;;12.40;99.90;;;;;;4952805;28;21106;-72
2023/04/27 07:43:43;;;;;;;1.47;1.43;;;12.00;99.90;;;;;;4952200;28;20492;-71
2023/04/27 07:46:11;;;;;;;0.70;0.70;;;11.80;99.90;;;;;;4952906;28;20488;-71
2023/04/27 07:48:38;;;;;;;1.37;0.50;;;11.60;99.90;;;;;;4952883;28;20484;-72
2023/04/27 07:51:05;;;;;;;0.70;0.70;;;11.20;99.90;;;;;;4952770;28;20507;-71
2023/04/27 07:53:34;;;;;;;0.60;0.40;;;10.90;99.90;;;;;;4952624;28;20464;-71
2023/04/27 07:56:01;;;;;;;1.40;1.40;;;10.70;99.90;;;;;;4952393;28;20946;-71
2023/04/27 07:58:28;;;;;;;0.50;0.40;;;10.70;99.90;;;;;;4953134;28;20465;-71
2023/04/27 08:00:55;;;;;;;1.20;1.20;;;10.70;99.90;;;;;;4952746;28;20269;-72
2023/04/27 08:03:23;;;;;;;2.22;1.60;;;11.00;99.90;;;;;;4952441;28;20480;-71
2023/04/27 08:05:50;;;;;;;1.02;0.75;;;10.90;99.90;;;;;;4953118;28;20209;-71
2023/04/27 08:08:17;;;;;;;0.50;0.50;;;10.70;99.90;;;;;;4952571;28;20616;-72
2023/04/27 08:10:43;;;;;;;0.60;0.60;;;10.50;99.90;;;;;;4952453;28;20721;-70
2023/04/27 08:13:10;;;;;;;1.13;0.80;;;10.50;99.90;;;;;;4951588;28;20464;-72
2023/04/27 08:15:37;;;;;;;6.22;3.13;;;10.50;99.90;;;;;;4954090;28;20236;-72
2023/04/27 08:18:04;;;;;;;1.42;1.42;;;10.50;99.90;;;;;;4956243;28;20217;-72
2023/04/27 08:20:32;;;;;;;3.50;0.63;;;10.50;99.90;;;;;;4956820;28;20281;-72
2023/04/27 08:22:59;;;;;;;0.98;0.98;;;10.20;99.90;;;;;;4956745;28;20221;-72
2023/04/27 08:25:25;;;;;;;1.88;1.58;;;10.20;99.90;;;;;;4956522;28;20235;-72
2023/04/27 08:27:52;;;;;;;1.48;1.38;;;10.10;99.90;;;;;;4955843;28;20249;-72
2023/04/27 08:30:20;;;;;;;3.88;2.17;;;10.00;99.90;;;;;;4956287;28;20451;-72
2023/04/27 08:32:46;;;;;;;0.50;0.47;;;9.90;99.90;;;;;;4956314;28;20213;-72
2023/04/27 08:35:13;;;;;;;0.65;0.65;;;9.90;99.90;;;;;;4956268;28;20209;-73
2023/04/27 08:37:42;;;;;;;0.40;0.40;;;9.90;99.90;;;;;;4956658;28;20217;-72
2023/04/27 08:40:10;;;;;;;0.70;0.70;;;10.00;99.90;;;;;;4956748;28;20213;-72
2023/04/27 08:42:37;;;;;;;0.80;0.80;;;10.20;99.90;;;;;;4956146;28;20308;-72
2023/04/27 08:45:07;;;;;;;1.30;1.20;;;10.30;99.90;;;;;;4955662;28;20213;-73
2023/04/27 08:47:34;;;;;;;3.40;2.35;;;10.40;99.90;;;;;;4956319;28;20213;-72
2023/04/27 08:50:00;;;;;;;1.40;0.98;;;10.50;99.90;;;;;;4956172;28;20709;-72
2023/04/27 08:52:28;;;;;;;0.73;0.73;;;10.80;99.90;;;;;;4955741;28;20248;-72
2023/04/27 08:54:56;;;;;;;0.73;0.73;;;10.70;99.90;;;;;;4955277;28;20220;-72
2023/04/27 08:57:23;;;;;;;0.57;0.57;;;10.70;99.90;;;;;;4955324;28;20220;-72
2023/04/27 08:59:59;;;;;;;1.25;0.50;;;10.50;99.90;;;;;;4955120;28;20464;-73
2023/04/27 09:02:28;;;;;;;7.93;1.48;;;10.40;99.90;;;;;;4956262;28;20247;-73
2023/04/27 09:04:55;;;;;;;0.60;0.60;;;10.40;99.90;;;;;;4955515;28;20209;-72
2023/04/27 09:07:21;;;;;;;0.50;0.50;;;10.20;99.90;;;;;;4955695;28;20209;-72
2023/04/27 09:09:48;;;;;;;0.55;0.55;;;10.10;99.90;;;;;;4955242;28;20240;-72
2023/04/27 09:12:19;;;;;;;1.33;1.02;;;10.00;99.90;;;;;;4954555;28;20228;-72
2023/04/27 09:14:56;;;;;;;0.60;0.60;;;9.90;99.90;;;;;;4955190;28;20220;-72
2023/04/27 09:17:26;;;;;;;1.10;1.10;;;9.90;99.90;;;;;;4956320;28;20264;-72
2023/04/27 09:19:53;;;;;;;0.77;0.77;;;9.90;99.90;;;;;;4955513;28;20212;-72
2023/04/27 09:22:19;;;;;;;0.85;0.63;;;10.00;99.90;;;;;;4955262;28;20240;-72
2023/04/27 09:24:53;;;;;;;2.47;0.50;;;10.10;99.90;;;;;;4954694;28;20210;-72
2023/04/27 09:27:22;;;;;;;1.10;1.10;;;10.20;99.90;;;;;;4954791;28;20228;-72
2023/04/27 09:29:49;;;;;;;0.57;0.57;;;10.30;99.90;;;;;;4947241;28;20251;-73
2023/04/27 09:32:16;;;;;;;1.73;1.63;;;10.40;99.90;;;;;;4939876;28;20604;-72
2023/04/27 09:34:43;;;;;;;0.85;0.85;;;10.40;99.90;;;;;;4935947;29;20671;-72
2023/04/27 09:37:10;;;;;;;0.90;0.90;;;10.60;99.90;;;;;;4936074;29;20202;-72
2023/04/27 09:39:38;;;;;;;1.60;1.60;;;10.80;99.90;;;;;;4936543;29;20277;-73
2023/04/27 09:42:05;;;;;;;14.80;1.13;;;10.80;99.90;;;;;;4935659;29;20241;-72
2023/04/27 09:44:33;;;;;;;1.20;1.13;;;10.90;99.90;;;;;;4935139;29;20210;-73
2023/04/27 09:47:00;;;;;;;5.05;1.77;;;10.90;99.90;;;;;;4936209;29;20206;-72
2023/04/27 09:49:28;;;;;;;1.75;1.20;;;10.80;99.90;;;;;;4935769;29;20226;-73
2023/04/27 09:51:57;;;;;;;1.27;1.27;;;11.00;99.90;;;;;;4935873;29;20309;-73
2023/04/27 09:54:26;;;;;;;1.07;1.07;;;11.30;99.90;;;;;;4935873;29;20525;-73
2023/04/27 09:57:02;;;;;;;3.30;0.83;;;11.40;99.90;;;;;;4936047;29;20473;-72
2023/04/27 09:59:48;;;;;;;1.43;0.97;;;11.60;99.90;;;;;;4936142;29;20464;-73
2023/04/27 10:02:17;;;;;;;1.20;1.20;;;11.60;99.90;;;;;;4935742;29;20501;-73
2023/04/27 10:05:10;;;;;;;0.90;0.90;;;11.60;99.90;;;;;;4936253;29;20465;-73
2023/04/27 10:07:40;;;;;;;1.07;1.07;;;11.40;99.90;;;;;;4936511;29;20476;-73
2023/04/27 10:10:15;;;;;;;0.83;0.83;;;11.40;99.90;;;;;;4936564;29;21072;-72
2023/04/27 10:12:42;;;;;;;1.03;0.97;;;11.60;99.90;;;;;;4935139;29;20834;-74
2023/04/27 10:15:15;;;;;;;1.63;1.10;;;11.80;99.90;;;;;;5026167;23;20504;-72
2023/04/27 10:17:48;;;;;;;1.10;1.10;;;11.80;99.90;;;;;;5012187;28;20458;-72
2023/04/27 10:20:16;;;;;;;1.17;0.80;;;11.90;99.90;;;;;;5012583;28;20466;-72
2023/04/27 10:22:45;;;;;;;0.70;0.70;;;11.90;98.50;;;;;;5012494;28;20502;-72
2023/04/27 10:25:17;;;;;;;0.60;0.60;;;11.80;98.30;;;;;;5011540;28;20489;-72
2023/04/27 10:27:49;;;;;;;2.10;0.63;;;11.70;98.10;;;;;;5011579;28;20461;-72
2023/04/27 10:30:19;;;;;;;0.60;0.60;;;11.70;98.30;;;;;;5003990;28;20493;-72
2023/04/27 10:32:54;;;;;;;0.50;0.50;;;11.80;99.10;;;;;;5004597;28;20462;-72
2023/04/27 10:35:22;;;;;;;1.03;0.63;;;12.00;99.40;;;;;;5012016;28;20481;-73
2023/04/27 10:37:50;;;;;;;0.60;0.60;;;12.10;99.20;;;;;;5011343;28;20807;-72
2023/04/27 10:40:17;;;;;;;1.10;1.10;;;12.10;99.90;;;;;;5012414;28;20454;-72
2023/04/27 10:42:47;;;;;;;0.70;0.70;;;12.10;99.90;;;;;;5011529;28;21158;-72
2023/04/27 10:45:13;;;;;;;1.33;1.20;;;12.10;99.90;;;;;;5011519;28;20548;-72
2023/04/27 10:47:43;;;;;;;7.30;4.90;;;12.10;99.90;;;;;;5011866;28;20466;-72
2023/04/27 10:50:12;;;;;;;1.10;1.10;;;12.10;99.80;;;;;;5011490;28;20821;-72
2023/04/27 10:52:42;;;;;;;0.50;0.50;;;12.20;99.30;;;;;;5011922;28;20561;-72
2023/04/27 10:55:16;;;;;;;3.93;3.60;;;12.10;97.50;;;;;;5011230;28;20489;-72
2023/04/27 10:57:48;;;;;;;0.70;0.70;;;12.20;97.90;;;;;;5010834;28;20930;-71
2023/04/27 11:00:21;;;;;;;0.90;0.87;;;12.30;98.60;;;;;;5011758;28;20557;-73
2023/04/27 11:02:49;;;;;;;3.40;2.57;;;12.40;99.10;;;;;;5011348;28;20474;-73
2023/04/27 11:05:18;;;;;;;4.97;4.70;;;12.60;99.20;;;;;;5011254;28;20482;-72
2023/04/27 11:07:45;;;;;;;1.27;1.23;;;12.70;98.20;;;;;;5011542;28;20904;-72
2023/04/27 11:10:16;;;;;;;3.23;0.93;;;12.80;98.70;;;;;;5011359;28;20490;-72
2023/04/27 11:12:43;;;;;;;0.70;0.70;;;13.00;98.00;;;;;;5010675;28;20462;-73
2023/04/27 11:15:10;;;;;;;1.50;1.23;;;12.90;97.50;;;;;;5010488;28;21025;-72
2023/04/27 11:17:37;;;;;;;1.10;1.00;;;12.80;96.90;;;;;;5011128;28;20497;-73
2023/04/27 11:20:07;;;;;;;0.67;0.67;;;12.60;96.70;;;;;;5010958;28;20473;-72
2023/04/27 11:22:35;;;;;;;0.83;0.83;;;12.60;97.30;;;;;;5011002;28;20872;-72
2023/04/27 11:25:03;;;;;;;1.57;1.57;;;12.60;97.90;;;;;;5010601;28;20493;-73
2023/04/27 11:27:37;;;;;;;0.90;0.90;;;12.60;97.40;;;;;;5010906;28;20466;-73
2023/04/27 11:30:06;;;;;;;4.00;2.20;;;12.70;97.10;;;;;;5003109;28;21024;-73
2023/04/27 11:32:33;;;;;;;0.73;0.73;;;12.80;96.20;;;;;;5011343;28;20458;-72
2023/04/27 11:35:00;;;;;;;0.73;0.73;;;12.90;96.00;;;;;;5011022;28;20485;-74
2023/04/27 11:37:28;;;;;;;0.90;0.90;;;13.00;95.50;;;;;;5011321;28;20472;-73
2023/04/27 11:39:56;;;;;;;0.83;0.63;;;13.10;94.30;;;;;;5011242;28;20552;-73
2023/04/27 11:42:24;;;;;;;1.00;1.00;;;12.90;95.30;;;;;;5010359;28;20835;-72
2023/04/27 11:44:55;;;;;;;0.80;0.63;;;13.10;95.40;;;;;;5009963;28;20486;-72
2023/04/27 11:47:22;;;;;;;1.20;1.10;;;13.00;95.20;;;;;;5010973;28;20461;-72
2023/04/27 11:49:49;;;;;;;0.63;0.63;;;13.00;95.20;;;;;;5010788;28;20486;-72
2023/04/27 11:52:16;;;;;;;0.87;0.87;;;13.10;95.20;;;;;;5010979;28;20505;-71
2023/04/27 11:54:55;;;;;;;0.63;0.63;;;13.30;95.60;;;;;;5010198;28;20496;-72
2023/04/27 11:57:25;;;;;;;0.80;0.80;;;13.40;95.70;;;;;;5010448;28;20472;-71
2023/04/27 11:59:52;;;;;;;0.90;0.90;;;13.30;95.30;;;;;;5010499;28;20604;-72
2023/04/27 12:02:20;;;;;;;0.80;0.80;;;13.40;95.40;;;;;;5010586;28;20484;-72
2023/04/27 12:04:47;;;;;;;3.50;0.93;;;13.30;95.60;;;;;;5010122;28;20491;-72
2023/04/27 12:07:14;;;;;;;0.53;0.53;;;13.10;95.40;;;;;;5010620;28;20466;-72
2023/04/27 12:09:41;;;;;;;0.60;0.60;;;13.00;96.20;;;;;;5010622;28;20494;-72
2023/04/27 12:12:09;;;;;;;0.80;0.80;;;13.00;96.00;;;;;;5010645;28;20925;-71
2023/04/27 12:14:36;;;;;;;0.80;0.60;;;13.00;96.20;;;;;;5009577;28;20494;-72
2023/04/27 12:17:02;;;;;;;1.90;0.80;;;13.10;96.00;;;;;;5010624;28;20474;-72
2023/04/27 12:19:30;;;;;;;2.53;1.10;;;13.20;95.60;;;;;;5011016;28;20802;-72
2023/04/27 12:21:57;;;;;;;0.70;0.60;;;13.30;95.50;;;;;;5010625;28;20474;-71
2023/04/27 12:24:24;;;;;;;1.13;1.07;;;13.30;95.30;;;;;;5010178;28;20905;-71
2023/04/27 12:26:51;;;;;;;1.23;1.17;;;13.10;95.40;;;;;;5027387;28;20462;-74
2023/04/27 12:29:20;;;;;;;0.90;0.90;;;13.00;96.10;;;;;;5012733;28;20482;-72
2023/04/27 12:31:47;;;;;;;0.70;0.70;;;13.00;95.80;;;;;;5010739;28;20949;-72
2023/04/27 12:34:13;;;;;;;0.40;0.40;;;13.20;96.50;;;;;;5010668;28;20490;-72
2023/04/27 12:36:40;;;;;;;1.60;0.73;;;13.20;96.10;;;;;;5011225;28;20570;-72
2023/04/27 12:39:15;;;;;;;0.97;0.97;;;13.40;96.10;;;;;;5011340;28;20454;-73
2023/04/27 12:41:43;;;;;;;1.30;1.30;;;13.40;96.20;;;;;;5010381;28;20454;-72
2023/04/27 12:44:10;;;;;;;0.83;0.83;;;13.40;95.80;;;;;;5009875;28;20981;-72
2023/04/27 12:46:38;;;;;;;0.90;0.90;;;13.40;95.50;;;;;;5010233;28;20887;-73
2023/04/27 12:49:06;;;;;;;1.17;1.17;;;13.30;95.60;;;;;;5010393;28;20462;-73
2023/04/27 12:51:33;;;;;;;1.20;1.20;;;13.20;95.40;;;;;;5010178;28;20461;-73
2023/04/27 12:54:00;;;;;;;0.93;0.93;;;13.20;95.60;;;;;;5009693;28;20490;-73
2023/04/27 12:56:26;;;;;;;0.40;0.40;;;13.10;95.40;;;;;;5009714;28;20478;-72
2023/04/27 12:58:53;;;;;;;0.70;0.70;;;13.10;95.90;;;;;;5010502;28;20473;-72
2023/04/27 13:01:23;;;;;;;1.20;1.20;;;13.00;95.80;;;;;;5011600;28;20465;-68
2023/04/27 13:03:52;;;;;;;1.00;1.00;;;13.00;95.70;;;;;;5013517;28;20847;-73
2023/04/27 13:06:21;;;;;;;0.80;0.80;;;12.90;96.70;;;;;;5013967;28;20477;-73
2023/04/27 13:08:48;;;;;;;1.47;1.37;;;12.80;96.30;;;;;;5013847;28;20977;-73
2023/04/27 13:11:15;;;;;;;1.40;1.30;;;12.70;96.40;;;;;;5014688;28;20500;-73
2023/04/27 13:13:42;;;;;;;1.13;0.80;;;12.70;96.30;;;;;;5013881;28;20548;-73
2023/04/27 13:16:09;;;;;;;0.90;0.90;;;12.60;96.50;;;;;;5014235;28;20782;-73
2023/04/27 13:18:35;;;;;;;1.30;1.00;;;12.60;96.50;;;;;;5013860;28;20557;-73
2023/04/27 13:21:05;;;;;;;1.10;1.10;;;12.60;96.00;;;;;;5013842;28;20457;-74
2023/04/27 13:23:31;;;;;;;0.80;0.80;;;12.70;95.70;;;;;;5013258;28;20803;-73
2023/04/27 13:25:58;;;;;;;1.73;1.63;;;13.00;96.20;;;;;;5013527;28;20466;-72
2023/04/27 13:28:25;;;;;;;2.57;0.90;;;13.10;95.20;;;;;;5012035;28;20837;-73
2023/04/27 13:30:52;;;;;;;2.67;0.67;;;13.20;94.90;;;;;;5006889;28;20486;-74
2023/04/27 13:33:19;;;;;;;1.90;1.00;;;13.20;95.30;;;;;;5012896;28;20462;-73
2023/04/27 13:35:45;;;;;;;1.07;0.80;;;13.30;95.30;;;;;;5013398;28;20470;-73
2023/04/27 13:38:13;;;;;;;4.80;1.60;;;13.30;95.60;;;;;;5013541;28;20844;-73
2023/04/27 13:40:40;;;;;;;0.90;0.90;;;13.40;95.70;;;;;;5013352;28;20576;-73
2023/04/27 13:43:07;;;;;;;0.90;0.90;;;13.30;95.60;;;;;;5012120;28;20520;-73
2023/04/27 13:45:34;;;;;;;0.67;0.67;;;13.40;95.80;;;;;;5013000;28;20466;-73
2023/04/27 13:48:01;;;;;;;0.60;0.60;;;13.30;95.30;;;;;;5013428;28;20473;-72
2023/04/27 13:50:28;;;;;;;1.10;1.10;;;13.30;95.60;;;;;;5013095;28;20996;-72
2023/04/27 13:52:55;;;;;;;0.70;0.70;;;13.30;95.90;;;;;;5013108;28;20472;-72
2023/04/27 13:55:23;;;;;;;1.77;1.67;;;13.30;95.60;;;;;;5012507;28;20485;-73
2023/04/27 13:57:50;;;;;;;1.00;0.97;;;13.30;95.30;;;;;;5012092;28;20477;-72
2023/04/27 14:00:17;;;;;;;1.10;1.10;;;13.30;95.80;;;;;;5013145;28;20544;-71
2023/04/27 14:02:44;;;;;;;1.53;1.40;;;13.30;95.40;;;;;;5012867;28;20466;-73
2023/04/27 14:05:10;;;;;;;1.00;1.00;;;13.30;95.20;;;;;;5012128;28;21005;-72
2023/04/27 14:07:37;;;;;;;1.00;1.00;;;13.40;95.70;;;;;;5012864;28;20462;-73
2023/04/27 14:10:05;;;;;;;0.73;0.73;;;13.40;95.70;;;;;;5012676;28;20482;-73
2023/04/27 14:12:33;;;;;;;0.77;0.77;;;13.30;95.00;;;;;;5011300;28;20466;-73
2023/04/27 14:15:00;;;;;;;0.80;0.80;;;13.20;95.40;;;;;;5012195;28;20857;-73
2023/04/27 14:17:27;;;;;;;0.87;0.87;;;13.10;96.00;;;;;;5013099;28;20468;-72
2023/04/27 14:19:53;;;;;;;1.07;0.90;;;13.00;96.30;;;;;;5012660;28;20469;-73
2023/04/27 14:22:20;;;;;;;2.13;0.97;;;13.00;96.20;;;;;;5012680;28;20469;-72
2023/04/27 14:24:47;;;;;;;1.90;1.07;;;13.00;96.00;;;;;;5012007;28;21014;-73
2023/04/27 14:27:15;;;;;;;1.03;1.03;;;13.10;96.10;;;;;;5012327;28;20462;-72
2023/04/27 14:29:43;;;;;;;1.67;0.90;;;13.20;96.40;;;;;;5004154;28;21100;-73
2023/04/27 14:32:10;;;;;;;0.80;0.80;;;13.20;96.00;;;;;;5012505;28;20462;-73
2023/04/27 14:34:36;;;;;;;0.80;0.80;;;13.20;95.80;;;;;;5011915;28;20950;-73
2023/04/27 14:37:03;;;;;;;2.00;0.83;;;13.10;96.10;;;;;;5012539;28;20472;-73
2023/04/27 14:39:30;;;;;;;0.97;0.97;;;13.20;96.00;;;;;;5012658;28;20462;-73
2023/04/27 14:41:57;;;;;;;0.60;0.60;;;13.30;96.10;;;;;;5011947;28;20469;-73
2023/04/27 14:44:24;;;;;;;0.80;0.80;;;13.30;96.00;;;;;;5011487;28;20849;-73
2023/04/27 14:46:52;;;;;;;0.83;0.83;;;13.30;95.80;;;;;;5012397;28;20478;-73
2023/04/27 14:49:19;;;;;;;1.60;1.47;;;13.20;96.10;;;;;;5012250;28;20462;-74
2023/04/27 14:51:46;;;;;;;1.43;0.90;;;13.20;96.20;;;;;;5011578;28;20575;-71
2023/04/27 14:54:13;;;;;;;2.40;1.60;;;13.10;96.20;;;;;;5011434;28;20505;-72
2023/04/27 14:56:39;;;;;;;2.83;2.57;;;13.20;96.30;;;;;;5011204;28;20465;-72
2023/04/27 14:59:06;;;;;;;0.70;0.70;;;13.10;96.30;;;;;;5011110;28;20462;-72
2023/04/27 15:01:33;;;;;;;1.03;1.03;;;12.90;95.90;;;;;;5011634;28;20565;-71
2023/04/27 15:04:01;;;;;;;1.23;1.17;;;12.80;96.10;;;;;;5011157;28;20481;-72
2023/04/27 15:06:29;;;;;;;0.93;0.93;;;12.70;96.50;;;;;;5011492;28;20625;-72
2023/04/27 15:08:56;;;;;;;0.50;0.50;;;12.80;96.70;;;;;;5012140;28;20469;-72
2023/04/27 15:11:23;;;;;;;1.70;1.60;;;12.80;96.70;;;;;;5011237;28;20490;-72
2023/04/27 15:13:50;;;;;;;1.10;1.10;;;12.80;96.50;;;;;;5010837;28;20578;-72
2023/04/27 15:16:18;;;;;;;3.13;1.00;;;12.80;97.00;;;;;;5011505;28;20477;-72
2023/04/27 15:18:45;;;;;;;0.77;0.60;;;12.90;97.20;;;;;;5011348;28;20724;-73
2023/04/27 15:21:13;;;;;;;1.17;1.17;;;12.90;97.20;;;;;;5011289;28;20492;-72
2023/04/27 15:23:40;;;;;;;0.77;0.77;;;12.90;97.10;;;;;;5010970;28;20560;-72
2023/04/27 15:26:07;;;;;;;0.90;0.90;;;13.00;97.60;;;;;;5010763;28;20478;-72
2023/04/27 15:28:33;;;;;;;1.60;1.50;;;13.00;97.50;;;;;;5008320;28;20907;-72
2023/04/27 15:31:00;;;;;;;0.90;0.90;;;13.00;97.10;;;;;;5004946;28;20482;-73
2023/04/27 15:33:27;;;;;;;0.97;0.97;;;12.90;97.40;;;;;;5010181;28;20485;-73
2023/04/27 15:35:53;;;;;;;0.97;0.97;;;12.80;97.20;;;;;;5010827;28;20466;-72
2023/04/27 15:38:22;;;;;;;0.93;0.93;;;12.80;97.60;;;;;;5010836;28;20465;-73
2023/04/27 15:40:48;;;;;;;5.63;1.17;;;12.70;97.40;;;;;;5010879;28;20468;-73
2023/04/27 15:43:15;;;;;;;2.97;1.40;;;12.60;97.30;;;;;;5009582;28;20470;-72
2023/04/27 15:45:42;;;;;;;1.20;1.10;;;12.60;97.50;;;;;;5010739;28;20468;-73
2023/04/27 15:48:11;;;;;;;0.70;0.70;;;12.60;97.30;;;;;;5010418;28;20494;-73
2023/04/27 15:50:37;;;;;;;1.33;1.33;;;12.60;97.70;;;;;;5010665;28;20513;-73
2023/04/27 15:53:04;;;;;;;1.50;1.50;;;12.70;97.70;;;;;;5010638;28;20466;-73
2023/04/27 15:55:32;;;;;;;1.40;0.83;;;12.70;98.10;;;;;;5010567;28;20469;-73
2023/04/27 15:57:59;;;;;;;1.20;1.20;;;12.70;97.90;;;;;;5010452;28;20461;-73
2023/04/27 16:00:26;;;;;;;4.27;2.20;;;12.80;97.70;;;;;;5011324;28;20930;-73
2023/04/27 16:02:53;;;;;;;0.63;0.63;;;13.00;97.50;;;;;;5010894;28;20573;-72
2023/04/27 16:05:20;;;;;;;0.73;0.73;;;13.00;96.20;;;;;;5010237;28;20892;-73
2023/04/27 16:07:47;;;;;;;0.77;0.77;;;13.10;96.90;;;;;;5010970;28;20472;-73
2023/04/27 16:10:13;;;;;;;0.93;0.93;;;13.20;97.10;;;;;;5010636;28;20489;-73
2023/04/27 16:12:41;;;;;;;1.43;1.43;;;13.10;96.70;;;;;;5010109;28;20470;-73
2023/04/27 16:15:09;;;;;;;1.07;1.07;;;13.10;96.40;;;;;;5012235;23;20499;-73
2023/04/27 16:17:36;;;;;;;1.37;1.37;;;12.90;96.50;;;;;;4991957;28;20557;-73
2023/04/27 16:20:05;;;;;;;1.27;1.27;;;12.90;97.30;;;;;;4991199;28;20951;-73
2023/04/27 16:22:32;;;;;;;0.80;0.80;;;12.90;97.10;;;;;;4991303;28;20474;-72
2023/04/27 16:24:59;;;;;;;0.60;0.60;;;12.80;97.30;;;;;;4990987;28;20487;-71
2023/04/27 16:27:26;;;;;;;1.63;1.53;;;12.70;97.10;;;;;;4990959;28;20561;-72
2023/04/27 16:29:54;;;;;;;1.03;1.03;;;12.70;97.20;;;;;;4990838;28;20806;-73
2023/04/27 16:32:20;;;;;;;1.23;1.13;;;12.60;97.50;;;;;;4991538;28;20490;-73
2023/04/27 16:34:47;;;;;;;0.63;0.63;;;12.60;96.90;;;;;;4990806;28;20879;-73
2023/04/27 16:37:14;;;;;;;0.83;0.83;;;12.60;96.20;;;;;;4993979;28;20467;-72
2023/04/27 16:39:41;;;;;;;2.70;1.57;;;12.70;97.00;;;;;;4994683;28;20582;-73
2023/04/27 16:42:08;;;;;;;1.60;1.50;;;12.80;97.10;;;;;;4995125;28;20469;-74
2023/04/27 16:44:37;;;;;;;2.77;1.50;;;12.70;97.20;;;;;;4994998;28;21168;-73
2023/04/27 16:47:05;;;;;;;1.37;1.37;;;12.70;96.60;;;;;;4995994;28;20474;-73
2023/04/27 16:49:32;;;;;;;3.03;0.73;;;12.70;96.60;;;;;;4994959;28;20466;-73
2023/04/27 16:51:59;;;;;;;1.17;1.17;;;12.70;96.80;;;;;;4994483;28;20501;-73